Time;durP1;ratioP1;P1;durP2;ratioP2;P2;SDS_P1;SDS_P2;PMS_P1;PMS_P2;Temp;Humidity;BMP_temperature;BMP_pressure;BME280_temperature;BME280_humidity;BME280_pressure;Samples;Min_cycle;Max_cycle;Signal;HPM_P1;HPM_P2
2023/09/10 00:02:19;;;;;;;1.80;1.70;;;;;19.30;96287.00;;;;5055688;28;20577;-63
2023/09/10 00:04:52;;;;;;;1.17;1.17;;;;;19.40;96279.00;;;;5055590;28;20216;-64
2023/09/10 00:07:29;;;;;;;1.47;1.43;;;;;19.30;96283.00;;;;5055935;28;20191;-63
2023/09/10 00:09:59;;;;;;;1.97;1.87;;;;;19.30;96286.00;;;;5055515;28;20188;-63
2023/09/10 00:12:27;;;;;;;3.27;2.60;;;;;19.20;96288.00;;;;5056131;28;20177;-63
2023/09/10 00:14:58;;;;;;;2.00;1.90;;;;;19.20;96287.00;;;;5055385;28;20208;-63
2023/09/10 00:17:28;;;;;;;1.57;1.47;;;;;19.30;96281.00;;;;5055535;28;20183;-63
2023/09/10 00:20:01;;;;;;;1.40;1.30;;;;;19.30;96291.00;;;;5037394;28;20244;-63
2023/09/10 00:22:29;;;;;;;1.83;1.73;;;;;19.20;96287.00;;;;5055423;28;20180;-63
2023/09/10 00:24:56;;;;;;;2.43;2.27;;;;;19.10;96284.00;;;;5055147;28;20215;-63
2023/09/10 00:27:26;;;;;;;1.50;1.40;;;;;19.10;96283.00;;;;5055197;28;20188;-63
2023/09/10 00:29:58;;;;;;;1.40;1.40;;;;;19.10;96284.00;;;;5055443;28;20511;-63
2023/09/10 00:32:28;;;;;;;5.23;2.50;;;;;19.20;96283.00;;;;5055764;28;20188;-63
2023/09/10 00:35:04;;;;;;;2.43;2.23;;;;;19.20;96291.00;;;;5054945;28;20691;-63
2023/09/10 00:37:34;;;;;;;2.00;1.87;;;;;19.20;96291.00;;;;5037467;28;20207;-63
2023/09/10 00:40:00;;;;;;;2.07;1.97;;;;;19.20;96280.00;;;;5054740;28;20678;-63
2023/09/10 00:42:30;;;;;;;3.30;2.00;;;;;19.10;96288.00;;;;5054846;28;20207;-63
2023/09/10 00:44:58;;;;;;;1.73;1.63;;;;;19.10;96280.00;;;;5054648;28;20211;-63
2023/09/10 00:47:30;;;;;;;2.17;2.07;;;;;19.10;96276.00;;;;5054667;28;20199;-63
2023/09/10 00:50:00;;;;;;;2.10;1.93;;;;;18.80;96274.00;;;;5055083;28;20175;-63
2023/09/10 00:52:31;;;;;;;1.57;1.47;;;;;18.80;96269.00;;;;5054723;28;20204;-62
2023/09/10 00:55:01;;;;;;;2.40;2.20;;;;;18.90;96268.00;;;;5036709;28;20227;-62
2023/09/10 00:57:36;;;;;;;1.30;1.30;;;;;18.80;96267.00;;;;5054885;28;20199;-62
2023/09/10 01:00:10;;;;;;;1.67;1.57;;;;;18.80;96269.00;;;;5054820;28;20222;-63
2023/09/10 01:02:43;;;;;;;1.57;1.47;;;;;18.80;96271.00;;;;5054763;28;20173;-63
2023/09/10 01:05:12;;;;;;;2.37;1.97;;;;;18.90;96270.00;;;;5054333;28;20270;-63
2023/09/10 01:07:40;;;;;;;2.37;2.23;;;;;18.90;96268.00;;;;5054307;28;20544;-63
2023/09/10 01:10:10;;;;;;;1.90;1.77;;;;;18.90;96265.00;;;;5054363;28;20192;-63
2023/09/10 01:12:44;;;;;;;2.00;1.83;;;;;18.90;96273.00;;;;5054220;28;20196;-63
2023/09/10 01:15:27;;;;;;;2.00;1.90;;;;;18.80;96280.00;;;;5054461;28;20215;-64
2023/09/10 01:18:03;;;;;;;2.13;2.03;;;;;18.80;96277.00;;;;5054626;28;20185;-63
2023/09/10 01:21:16;;;;;;;1.17;1.07;;;;;18.60;96263.00;;;;5054113;28;20361;-63
2023/09/10 01:23:57;;;;;;;1.63;1.53;;;;;18.60;96269.00;;;;5045866;28;20285;-63
2023/09/10 01:26:34;;;;;;;1.20;1.17;;;;;18.60;96266.00;;;;5054380;28;20576;-63
2023/09/10 01:29:04;;;;;;;1.50;1.40;;;;;18.60;96267.00;;;;5054289;28;20214;-64
2023/09/10 01:31:39;;;;;;;1.47;1.43;;;;;18.50;96270.00;;;;5054165;28;20188;-63
2023/09/10 01:34:10;;;;;;;2.03;1.93;;;;;18.50;96261.00;;;;5053869;28;20606;-63
2023/09/10 01:36:49;;;;;;;4.20;2.33;;;;;18.70;96269.00;;;;5054047;28;20176;-63
2023/09/10 01:39:23;;;;;;;1.10;1.10;;;;;18.70;96264.00;;;;5053945;28;20384;-63
2023/09/10 01:41:53;;;;;;;3.60;1.90;;;;;18.60;96263.00;;;;5054300;28;20207;-63
2023/09/10 01:44:22;;;;;;;1.67;1.57;;;;;18.50;96258.00;;;;5053791;28;20576;-63
2023/09/10 01:46:55;;;;;;;1.73;1.53;;;;;18.50;96266.00;;;;5053573;28;20279;-63
2023/09/10 01:49:23;;;;;;;1.40;1.30;;;;;18.40;96262.00;;;;5053483;28;20246;-63
2023/09/10 01:51:50;;;;;;;1.10;1.03;;;;;18.30;96261.00;;;;5053845;28;20192;-63
2023/09/10 01:54:18;;;;;;;1.90;1.80;;;;;18.40;96259.00;;;;5053233;28;20286;-63
2023/09/10 01:57:08;;;;;;;1.53;1.43;;;;;18.30;96256.00;;;;5053607;28;20180;-63
2023/09/10 01:59:38;;;;;;;2.43;2.00;;;;;18.40;96263.00;;;;5053991;28;20259;-63
2023/09/10 02:02:06;;;;;;;2.03;1.83;;;;;18.40;96264.00;;;;5053583;28;20222;-63
2023/09/10 02:04:36;;;;;;;3.40;1.77;;;;;18.30;96257.00;;;;5053596;28;20226;-63
2023/09/10 02:07:04;;;;;;;1.73;1.63;;;;;18.10;96265.00;;;;5053449;28;20184;-63
2023/09/10 02:09:35;;;;;;;1.73;1.63;;;;;18.00;96258.00;;;;5053598;28;20298;-63
2023/09/10 02:12:04;;;;;;;2.63;2.43;;;;;18.10;96253.00;;;;5053592;28;20262;-67
2023/09/10 02:14:33;;;;;;;1.60;1.50;;;;;18.20;96252.00;;;;5053191;28;20619;-63
2023/09/10 02:17:00;;;;;;;1.30;1.30;;;;;18.20;96251.00;;;;5053236;28;20555;-63
2023/09/10 02:19:27;;;;;;;1.50;1.40;;;;;18.20;96262.00;;;;5053226;28;20192;-63
2023/09/10 02:21:58;;;;;;;1.63;1.53;;;;;18.20;96254.00;;;;5053177;28;20235;-63
2023/09/10 02:24:28;;;;;;;3.20;1.97;;;;;18.10;96256.00;;;;5053425;28;20204;-63
2023/09/10 02:27:04;;;;;;;4.77;1.77;;;;;18.20;96256.00;;;;5053727;28;20180;-63
2023/09/10 02:29:36;;;;;;;1.67;1.57;;;;;18.20;96251.00;;;;5053632;28;20607;-63
2023/09/10 02:32:04;;;;;;;1.20;1.10;;;;;18.30;96252.00;;;;5053787;28;20181;-63
2023/09/10 02:34:31;;;;;;;1.83;1.73;;;;;18.20;96249.00;;;;5053201;28;20216;-63
2023/09/10 02:37:02;;;;;;;1.70;1.60;;;;;18.20;96248.00;;;;5053152;28;20192;-63
2023/09/10 02:39:31;;;;;;;1.90;1.80;;;;;18.10;96251.00;;;;5052881;28;20635;-63
2023/09/10 02:41:59;;;;;;;2.27;2.07;;;;;17.90;96253.00;;;;5052935;28;20220;-63
2023/09/10 02:44:26;;;;;;;1.20;1.20;;;;;18.00;96259.00;;;;5053190;28;20235;-63
2023/09/10 02:46:56;;;;;;;1.63;1.53;;;;;18.00;96249.00;;;;5053004;28;20195;-62
2023/09/10 02:49:24;;;;;;;1.77;1.67;;;;;17.90;96248.00;;;;5053458;28;20192;-63
2023/09/10 02:51:52;;;;;;;1.63;1.53;;;;;17.90;96250.00;;;;5052931;28;20184;-63
2023/09/10 02:54:21;;;;;;;1.77;1.67;;;;;17.80;96248.00;;;;5052937;28;20261;-63
2023/09/10 02:56:51;;;;;;;1.83;1.73;;;;;17.80;96254.00;;;;5052849;28;20211;-63
2023/09/10 02:59:22;;;;;;;1.60;1.50;;;;;17.70;96257.00;;;;5052872;28;20192;-63
2023/09/10 03:01:53;;;;;;;1.30;1.30;;;;;17.70;96250.00;;;;5056019;28;20239;-63
2023/09/10 03:04:22;;;;;;;2.53;2.33;;;;;17.70;96257.00;;;;5056672;28;20216;-63
2023/09/10 03:06:51;;;;;;;1.83;1.70;;;;;17.80;96253.00;;;;5056723;28;20192;-63
2023/09/10 03:09:19;;;;;;;2.10;2.00;;;;;17.80;96252.00;;;;5056777;28;20204;-64
2023/09/10 03:11:47;;;;;;;1.63;1.53;;;;;17.80;96248.00;;;;5056717;28;20273;-63
2023/09/10 03:14:16;;;;;;;1.70;1.60;;;;;17.70;96255.00;;;;5056379;28;20690;-63
2023/09/10 03:16:43;;;;;;;1.40;1.37;;;;;17.80;96256.00;;;;5038452;28;20249;-63
2023/09/10 03:19:12;;;;;;;3.60;1.63;;;;;17.80;96248.00;;;;5056769;28;20200;-64
2023/09/10 03:21:47;;;;;;;1.97;1.80;;;;;17.80;96249.00;;;;5038457;28;20224;-63
2023/09/10 03:24:14;;;;;;;2.13;2.00;;;;;17.70;96255.00;;;;5056545;28;20211;-63
2023/09/10 03:26:46;;;;;;;1.27;1.27;;;;;17.70;96254.00;;;;5056237;28;20184;-63
2023/09/10 03:29:15;;;;;;;2.30;2.10;;;;;17.60;96251.00;;;;5056099;28;20195;-63
2023/09/10 03:31:42;;;;;;;1.50;1.40;;;;;17.60;96254.00;;;;5056443;28;20191;-64
2023/09/10 03:34:12;;;;;;;1.80;1.70;;;;;17.60;96248.00;;;;5056645;28;20310;-63
2023/09/10 03:36:40;;;;;;;4.37;2.30;;;;;17.60;96248.00;;;;5056039;28;20207;-63
2023/09/10 03:39:16;;;;;;;1.83;1.73;;;;;17.60;96251.00;;;;5056158;28;20200;-63
2023/09/10 03:41:49;;;;;;;2.37;2.07;;;;;17.50;96247.00;;;;5056030;28;20284;-63
2023/09/10 03:44:16;;;;;;;1.60;1.50;;;;;17.40;96245.00;;;;5056005;28;20239;-63
2023/09/10 03:46:46;;;;;;;1.50;1.50;;;;;17.40;96247.00;;;;5056083;28;20215;-63
2023/09/10 03:49:13;;;;;;;2.10;1.87;;;;;17.40;96248.00;;;;5056005;28;20203;-63
2023/09/10 03:51:42;;;;;;;1.97;1.87;;;;;17.30;96255.00;;;;5055918;28;20647;-63
2023/09/10 03:54:13;;;;;;;1.57;1.47;;;;;17.40;96251.00;;;;5056125;28;20706;-63
2023/09/10 03:56:44;;;;;;;1.10;1.10;;;;;17.40;96255.00;;;;5056105;28;20184;-63
2023/09/10 03:59:11;;;;;;;1.73;1.63;;;;;17.40;96245.00;;;;5055858;28;20238;-63
2023/09/10 04:01:39;;;;;;;1.93;1.83;;;;;17.40;96249.00;;;;5055666;28;20598;-62
2023/09/10 04:04:09;;;;;;;1.63;1.53;;;;;17.50;96237.00;;;;5055762;28;20223;-62
2023/09/10 04:06:38;;;;;;;3.80;2.43;;;;;17.50;96250.00;;;;5055898;28;20271;-62
2023/09/10 04:09:07;;;;;;;1.33;1.33;;;;;17.50;96244.00;;;;5055842;28;20200;-62
2023/09/10 04:11:37;;;;;;;2.37;2.17;;;;;17.50;96247.00;;;;5055501;28;20188;-62
2023/09/10 04:14:12;;;;;;;3.37;1.77;;;;;17.50;96252.00;;;;5055734;28;20219;-62
2023/09/10 04:16:42;;;;;;;3.33;2.00;;;;;17.40;96254.00;;;;5055518;28;20228;-63
2023/09/10 04:19:12;;;;;;;1.67;1.60;;;;;17.30;96258.00;;;;5055461;28;20192;-63
2023/09/10 04:21:40;;;;;;;0.93;0.93;;;;;17.20;96258.00;;;;5055636;28;20219;-63
2023/09/10 04:24:09;;;;;;;3.00;2.80;;;;;17.10;96255.00;;;;5055784;28;20212;-63
2023/09/10 04:26:39;;;;;;;1.20;1.20;;;;;17.20;96255.00;;;;5055589;28;20192;-63
2023/09/10 04:29:06;;;;;;;6.77;3.30;;;;;17.20;96252.00;;;;5037290;28;20197;-63
2023/09/10 04:31:40;;;;;;;2.07;1.87;;;;;17.40;96266.00;;;;5055195;28;20188;-63
2023/09/10 04:34:07;;;;;;;2.43;1.30;;;;;17.30;96259.00;;;;5055293;28;20548;-63
2023/09/10 04:36:34;;;;;;;1.93;1.83;;;;;17.20;96257.00;;;;5055037;28;20654;-63
2023/09/10 04:39:07;;;;;;;1.73;1.63;;;;;17.00;96267.00;;;;5055090;28;20203;-63
2023/09/10 04:41:37;;;;;;;2.53;2.00;;;;;16.90;96265.00;;;;5055166;28;20279;-63
2023/09/10 04:44:06;;;;;;;1.23;1.23;;;;;17.00;96258.00;;;;5054760;28;20208;-63
2023/09/10 04:46:34;;;;;;;2.90;2.70;;;;;17.00;96268.00;;;;5054799;28;20192;-63
2023/09/10 04:49:01;;;;;;;2.43;2.23;;;;;17.00;96260.00;;;;5054909;28;20195;-63
2023/09/10 04:51:31;;;;;;;2.63;2.43;;;;;17.10;96260.00;;;;5055052;28;20188;-63
2023/09/10 04:53:59;;;;;;;1.57;1.47;;;;;17.00;96267.00;;;;5054580;28;20235;-63
2023/09/10 04:56:29;;;;;;;1.87;1.77;;;;;16.90;96266.00;;;;5054811;28;20211;-63
2023/09/10 04:59:00;;;;;;;2.03;1.90;;;;;16.80;96269.00;;;;5054676;28;20267;-63
2023/09/10 05:01:27;;;;;;;1.77;1.67;;;;;16.70;96276.00;;;;5054416;28;20231;-63
2023/09/10 05:03:55;;;;;;;1.67;1.57;;;;;16.90;96271.00;;;;5054632;28;20212;-63
2023/09/10 05:06:22;;;;;;;2.03;1.93;;;;;16.80;96276.00;;;;5054633;28;20674;-63
2023/09/10 05:08:49;;;;;;;2.27;2.17;;;;;16.90;96279.00;;;;5054355;28;20222;-63
2023/09/10 05:11:19;;;;;;;2.23;2.03;;;;;16.80;96277.00;;;;5054377;28;20246;-63
2023/09/10 05:13:46;;;;;;;1.37;1.33;;;;;16.80;96274.00;;;;5054091;28;20212;-63
2023/09/10 05:16:16;;;;;;;1.00;1.00;;;;;16.70;96274.00;;;;5054454;28;20192;-63
2023/09/10 05:18:44;;;;;;;1.30;1.23;;;;;16.60;96275.00;;;;5054437;28;20177;-63
2023/09/10 05:21:11;;;;;;;4.73;2.80;;;;;16.70;96275.00;;;;5053961;28;20553;-63
2023/09/10 05:23:39;;;;;;;1.87;1.67;;;;;16.70;96280.00;;;;5035466;28;20223;-63
2023/09/10 05:26:06;;;;;;;2.27;2.07;;;;;16.70;96280.00;;;;5053702;28;20721;-63
2023/09/10 05:28:34;;;;;;;1.43;1.40;;;;;16.80;96282.00;;;;5053988;28;20188;-63
2023/09/10 05:31:04;;;;;;;2.40;2.30;;;;;16.90;96290.00;;;;5053848;28;20196;-63
2023/09/10 05:33:34;;;;;;;2.27;2.07;;;;;17.00;96286.00;;;;5053897;28;20212;-64
2023/09/10 05:36:01;;;;;;;2.70;1.97;;;;;17.00;96288.00;;;;5054045;28;20721;-64
2023/09/10 05:38:28;;;;;;;2.20;2.00;;;;;17.00;96285.00;;;;5053606;28;20192;-63
2023/09/10 05:41:01;;;;;;;4.10;1.97;;;;;17.10;96281.00;;;;5053934;28;20180;-64
2023/09/10 05:43:29;;;;;;;2.40;1.37;;;;;17.10;96280.00;;;;5035805;28;20208;-64
2023/09/10 05:45:57;;;;;;;1.67;1.57;;;;;17.10;96286.00;;;;5054181;28;20245;-64
2023/09/10 05:48:24;;;;;;;1.97;1.87;;;;;17.20;96273.00;;;;5053619;28;20195;-63
2023/09/10 05:50:56;;;;;;;4.57;1.77;;;;;17.10;96273.00;;;;5053577;28;20680;-62
2023/09/10 05:53:27;;;;;;;1.90;1.80;;;;;17.10;96281.00;;;;5054033;28;20612;-63
2023/09/10 05:55:54;;;;;;;1.87;1.77;;;;;17.10;96286.00;;;;5053853;28;20208;-63
2023/09/10 05:58:24;;;;;;;1.33;1.30;;;;;17.20;96281.00;;;;5053466;28;20192;-62
2023/09/10 06:00:52;;;;;;;3.40;2.57;;;;;17.40;96281.00;;;;5053698;28;20270;-63
2023/09/10 06:03:20;;;;;;;1.77;1.67;;;;;17.50;96283.00;;;;5053255;28;20219;-63
2023/09/10 06:05:49;;;;;;;2.40;2.20;;;;;17.60;96284.00;;;;5053508;28;20192;-63
2023/09/10 06:08:19;;;;;;;1.63;1.53;;;;;17.70;96281.00;;;;5053551;28;20196;-63
2023/09/10 06:10:46;;;;;;;2.40;2.20;;;;;17.70;96287.00;;;;5053380;28;20729;-63
2023/09/10 06:13:14;;;;;;;0.80;0.80;;;;;17.60;96284.00;;;;5053196;28;20192;-63
2023/09/10 06:15:42;;;;;;;1.77;1.67;;;;;17.50;96285.00;;;;5053288;28;20664;-62
2023/09/10 06:18:12;;;;;;;1.83;1.73;;;;;17.60;96286.00;;;;5053540;28;20195;-63
2023/09/10 06:20:40;;;;;;;1.63;1.53;;;;;17.50;96290.00;;;;5053418;28;20200;-63
2023/09/10 06:23:09;;;;;;;13.97;3.33;;;;;17.60;96281.00;;;;5053227;28;20219;-64
2023/09/10 06:25:38;;;;;;;1.33;1.23;;;;;17.70;96282.00;;;;5053469;28;20215;-63
2023/09/10 06:28:15;;;;;;;2.03;1.83;;;;;17.70;96291.00;;;;5053671;28;20181;-63
2023/09/10 06:30:42;;;;;;;1.93;1.80;;;;;17.90;96284.00;;;;5053620;28;20249;-63
2023/09/10 06:33:12;;;;;;;2.30;2.10;;;;;18.00;96286.00;;;;5053609;28;20199;-63
2023/09/10 06:35:40;;;;;;;1.80;1.70;;;;;17.90;96284.00;;;;5054344;28;20199;-63
2023/09/10 06:38:08;;;;;;;3.83;1.60;;;;;18.10;96299.00;;;;5057538;28;20195;-63
2023/09/10 06:40:38;;;;;;;1.83;1.73;;;;;18.10;96307.00;;;;5057203;28;20204;-63
2023/09/10 06:43:08;;;;;;;1.63;1.53;;;;;18.10;96299.00;;;;5056974;28;20204;-63
2023/09/10 06:45:38;;;;;;;1.57;1.47;;;;;18.20;96307.00;;;;5057649;28;20532;-63
2023/09/10 06:48:08;;;;;;;1.70;1.60;;;;;18.30;96306.00;;;;5057127;28;20257;-63
2023/09/10 06:50:36;;;;;;;0.97;0.97;;;;;18.40;96303.00;;;;5057258;28;20214;-63
2023/09/10 06:53:03;;;;;;;2.87;2.47;;;;;18.50;96305.00;;;;5057139;28;20215;-63
2023/09/10 06:55:30;;;;;;;1.90;1.63;;;;;18.60;96305.00;;;;5056748;28;20219;-63
2023/09/10 06:57:59;;;;;;;3.00;1.70;;;;;18.80;96300.00;;;;5056843;28;20192;-63
2023/09/10 07:00:27;;;;;;;1.77;1.67;;;;;18.80;96300.00;;;;5056878;28;20199;-63
2023/09/10 07:02:54;;;;;;;2.13;1.93;;;;;19.00;96305.00;;;;5056741;28;20239;-63
2023/09/10 07:05:26;;;;;;;1.70;1.60;;;;;19.00;96308.00;;;;5056782;28;20585;-63
2023/09/10 07:07:54;;;;;;;1.87;1.77;;;;;19.10;96312.00;;;;5057262;28;20203;-63
2023/09/10 07:10:24;;;;;;;2.03;1.90;;;;;19.30;96309.00;;;;5056837;28;20192;-63
2023/09/10 07:12:55;;;;;;;1.50;1.40;;;;;19.30;96306.00;;;;5056865;28;20177;-63
2023/09/10 07:15:23;;;;;;;1.93;1.83;;;;;19.40;96301.00;;;;5056691;28;20208;-63
2023/09/10 07:17:54;;;;;;;1.80;1.53;;;;;19.40;96306.00;;;;5056847;28;20203;-63
2023/09/10 07:20:21;;;;;;;2.47;2.27;;;;;19.50;96316.00;;;;5056526;28;20546;-63
2023/09/10 07:22:49;;;;;;;0.93;0.93;;;;;19.60;96316.00;;;;5056485;28;20216;-64
2023/09/10 07:25:19;;;;;;;2.53;1.73;;;;;19.80;96304.00;;;;5056252;28;20212;-63
2023/09/10 07:27:48;;;;;;;1.70;1.60;;;;;19.90;96306.00;;;;5056932;28;20187;-63
2023/09/10 07:30:21;;;;;;;3.87;2.30;;;;;20.00;96316.00;;;;5056665;28;20200;-63
2023/09/10 07:32:55;;;;;;;2.80;1.90;;;;;20.10;96314.00;;;;5056600;28;20510;-63
2023/09/10 07:35:22;;;;;;;1.23;1.23;;;;;20.20;96314.00;;;;5056342;28;20227;-63
2023/09/10 07:37:52;;;;;;;2.53;2.33;;;;;20.20;96310.00;;;;5056214;28;20663;-63
2023/09/10 07:40:20;;;;;;;2.00;1.83;;;;;20.40;96316.00;;;;5056195;28;20262;-63
2023/09/10 07:42:48;;;;;;;1.47;1.47;;;;;20.50;96307.00;;;;5055854;28;20220;-63
2023/09/10 07:45:17;;;;;;;4.73;1.97;;;;;20.60;96313.00;;;;5056021;28;20234;-63
2023/09/10 07:47:44;;;;;;;2.78;2.58;;;;;20.80;96318.00;;;;5038178;28;20195;-63
2023/09/10 07:50:16;;;;;;;2.20;1.90;;;;;20.80;96315.00;;;;5056233;28;20207;-63
2023/09/10 07:52:43;;;;;;;4.83;1.90;;;;;20.90;96316.00;;;;5056621;28;20176;-66
2023/09/10 07:55:11;;;;;;;2.30;2.10;;;;;20.90;96317.00;;;;5055946;28;20262;-63
2023/09/10 07:57:39;;;;;;;1.83;1.73;;;;;21.10;96319.00;;;;5055682;28;20195;-63
2023/09/10 08:00:08;;;;;;;1.47;1.47;;;;;21.20;96311.00;;;;5055799;28;20222;-63
2023/09/10 08:02:36;;;;;;;1.52;1.42;;;;;21.40;96314.00;;;;5055771;28;20260;-63
2023/09/10 08:05:07;;;;;;;1.15;1.15;;;;;21.50;96313.00;;;;5055868;28;20273;-63
2023/09/10 08:07:38;;;;;;;2.50;2.37;;;;;21.60;96313.00;;;;5055830;28;20650;-64
2023/09/10 08:10:06;;;;;;;1.67;1.58;;;;;21.80;96317.00;;;;5055354;28;20196;-64
2023/09/10 08:12:34;;;;;;;5.88;1.95;;;;;22.00;96310.00;;;;5055358;28;20192;-63
2023/09/10 08:15:01;;;;;;;1.08;1.08;;;;;22.10;96317.00;;;;5055734;28;20216;-63
2023/09/10 08:17:28;;;;;;;1.50;1.48;;;;;22.10;96319.00;;;;5055307;28;20525;-63
2023/09/10 08:19:58;;;;;;;1.13;1.13;;;;;22.20;96320.00;;;;5056329;28;20200;-63
2023/09/10 08:22:27;;;;;;;1.02;1.02;;;;;22.40;96317.00;;;;5037639;28;20223;-63
2023/09/10 08:25:04;;;;;;;2.08;1.98;;;;;22.60;96322.00;;;;5055844;28;20744;-63
2023/09/10 08:27:35;;;;;;;1.50;1.45;;;;;22.70;96317.00;;;;5055935;28;20611;-63
2023/09/10 08:30:03;;;;;;;2.53;2.33;;;;;22.90;96322.00;;;;5056398;28;20185;-63
2023/09/10 08:32:31;;;;;;;2.47;2.28;;;;;23.00;96321.00;;;;5055258;28;20220;-63
2023/09/10 08:34:58;;;;;;;1.90;1.80;;;;;23.10;96321.00;;;;5055360;28;20219;-64
2023/09/10 08:37:27;;;;;;;7.82;2.78;;;;;23.20;96312.00;;;;5055078;28;20271;-63
2023/09/10 08:39:57;;;;;;;1.25;1.23;;;;;23.10;96320.00;;;;5055099;28;20207;-63
2023/09/10 08:42:31;;;;;;;1.98;1.88;;;;;23.40;96324.00;;;;5055227;28;20188;-63
2023/09/10 08:45:01;;;;;;;5.38;2.55;;;;;23.50;96317.00;;;;5055162;28;20265;-64
2023/09/10 08:47:35;;;;;;;1.80;1.70;;;;;24.00;96321.00;;;;5054966;28;20176;-64
2023/09/10 08:50:10;;;;;;;1.38;1.33;;;;;24.00;96317.00;;;;5055055;28;20195;-64
2023/09/10 08:52:39;;;;;;;1.60;1.55;;;;;24.10;96323.00;;;;5055124;28;20218;-64
2023/09/10 08:55:09;;;;;;;1.38;1.27;;;;;24.30;96319.00;;;;5054492;28;20216;-63
2023/09/10 08:57:38;;;;;;;2.00;1.80;;;;;24.40;96319.00;;;;5054531;28;20200;-64
2023/09/10 09:00:10;;;;;;;1.63;1.48;;;;;24.50;96312.00;;;;5054644;28;20188;-64
2023/09/10 09:02:39;;;;;;;1.67;1.58;;;;;24.60;96309.00;;;;5054574;28;20204;-64
2023/09/10 09:05:09;;;;;;;1.65;1.55;;;;;24.70;96311.00;;;;5054509;28;20212;-64
2023/09/10 09:07:43;;;;;;;1.85;1.40;;;;;24.80;96316.00;;;;5054728;28;20541;-64
2023/09/10 09:10:18;;;;;;;1.52;1.42;;;;;24.90;96310.00;;;;5054771;28;20177;-63
2023/09/10 09:12:47;;;;;;;1.85;1.58;;;;;24.90;96312.00;;;;5055296;28;20176;-64
2023/09/10 09:15:15;;;;;;;1.63;1.52;;;;;25.10;96307.00;;;;5055103;28;20219;-65
2023/09/10 09:17:47;;;;;;;1.83;1.73;;;;;25.20;96313.00;;;;5054367;28;20181;-65
2023/09/10 09:20:17;;;;;;;1.98;1.88;;;;;25.30;96306.00;;;;5054472;28;20545;-64
2023/09/10 09:22:51;;;;;;;1.40;1.35;;;;;25.30;96307.00;;;;5054134;28;20582;-64
2023/09/10 09:25:20;;;;;;;0.73;0.73;;;;;25.50;96315.00;;;;5053957;28;20295;-65
2023/09/10 09:27:51;;;;;;;2.03;1.92;;;;;25.60;96311.00;;;;5055004;28;20650;-63
2023/09/10 09:30:18;;;;;;;1.73;1.63;;;;;25.60;96312.00;;;;5037716;28;20571;-62
2023/09/10 09:32:46;;;;;;;1.75;1.65;;;;;25.60;96304.00;;;;5056212;28;20496;-63
2023/09/10 09:35:14;;;;;;;1.38;1.38;;;;;25.70;96304.00;;;;5056057;28;20713;-64
2023/09/10 09:37:41;;;;;;;1.60;1.50;;;;;25.80;96297.00;;;;5037852;28;20211;-63
2023/09/10 09:40:10;;;;;;;2.58;1.75;;;;;25.90;96300.00;;;;5055436;28;20540;-64
2023/09/10 09:42:39;;;;;;;1.15;1.15;;;;;26.00;96305.00;;;;5055772;28;20189;-64
2023/09/10 09:45:07;;;;;;;4.00;2.70;;;;;26.10;96308.00;;;;5055033;28;20207;-64
2023/09/10 09:47:36;;;;;;;1.45;1.40;;;;;26.30;96299.00;;;;5037569;28;20275;-64
2023/09/10 09:50:04;;;;;;;1.95;1.80;;;;;26.40;96296.00;;;;5055520;28;20192;-64
2023/09/10 09:52:32;;;;;;;1.67;1.58;;;;;26.50;96295.00;;;;5055834;28;20199;-64
2023/09/10 09:54:59;;;;;;;1.10;1.10;;;;;26.60;96289.00;;;;5037334;28;20222;-64
2023/09/10 09:57:27;;;;;;;1.30;1.30;;;;;26.70;96293.00;;;;5055291;28;20551;-64
2023/09/10 09:59:57;;;;;;;1.65;1.55;;;;;26.70;96290.00;;;;5055574;28;20189;-64
2023/09/10 10:02:25;;;;;;;1.52;1.42;;;;;26.80;96291.00;;;;5055673;28;20587;-64
2023/09/10 10:04:54;;;;;;;1.38;1.33;;;;;26.90;96278.00;;;;5054855;28;20228;-64
2023/09/10 10:07:25;;;;;;;2.25;2.05;;;;;27.00;96288.00;;;;5054900;28;20199;-64
2023/09/10 10:09:52;;;;;;;2.28;1.88;;;;;27.10;96287.00;;;;5055016;28;20188;-64
2023/09/10 10:12:22;;;;;;;1.75;1.65;;;;;27.20;96283.00;;;;5055550;28;20192;-64
2023/09/10 10:14:51;;;;;;;1.60;1.50;;;;;27.40;96281.00;;;;5055228;28;20215;-64
2023/09/10 10:17:23;;;;;;;1.92;1.83;;;;;27.60;96279.00;;;;5055503;28;20192;-64
2023/09/10 10:19:53;;;;;;;1.50;1.38;;;;;27.60;96271.00;;;;5036896;28;20198;-64
2023/09/10 10:22:23;;;;;;;3.05;1.70;;;;;27.80;96267.00;;;;5054682;28;20196;-64
2023/09/10 10:24:52;;;;;;;2.08;1.88;;;;;27.50;96263.00;;;;5036751;28;20678;-64
2023/09/10 10:27:24;;;;;;;1.27;1.27;;;;;27.80;96254.00;;;;5054132;28;20249;-64
2023/09/10 10:29:54;;;;;;;2.42;2.17;;;;;28.00;96253.00;;;;5055030;28;20642;-64
2023/09/10 10:32:27;;;;;;;2.28;1.90;;;;;28.20;96253.00;;;;5054254;28;20659;-65
2023/09/10 10:35:02;;;;;;;1.73;1.63;;;;;28.20;96249.00;;;;5055147;28;20208;-65
2023/09/10 10:37:39;;;;;;;1.10;1.10;;;;;28.30;96249.00;;;;5054617;28;20263;-64
2023/09/10 10:40:12;;;;;;;1.85;1.75;;;;;28.60;96245.00;;;;5036438;28;20199;-65
2023/09/10 10:42:51;;;;;;;1.67;1.58;;;;;28.50;96249.00;;;;5054425;28;20176;-65
2023/09/10 10:45:20;;;;;;;1.40;1.30;;;;;28.70;96247.00;;;;5054823;28;20212;-65
2023/09/10 10:47:50;;;;;;;1.27;1.25;;;;;28.70;96248.00;;;;5054273;28;20192;-65
2023/09/10 10:50:24;;;;;;;1.40;1.30;;;;;29.10;96248.00;;;;5054979;28;20203;-65
2023/09/10 10:53:02;;;;;;;6.70;2.10;;;;;29.30;96239.00;;;;5054496;28;20180;-65
2023/09/10 10:55:35;;;;;;;1.45;1.45;;;;;29.30;96244.00;;;;5036005;28;20215;-65
2023/09/10 10:58:03;;;;;;;2.80;2.47;;;;;29.40;96243.00;;;;5035937;28;20587;-65
2023/09/10 11:00:31;;;;;;;1.50;1.40;;;;;29.30;96236.00;;;;5053667;28;20192;-65
2023/09/10 11:03:14;;;;;;;2.85;1.67;;;;;29.40;96234.00;;;;5053707;28;20529;-64
2023/09/10 11:06:08;;;;;;;1.50;1.42;;;;;29.60;96239.00;;;;5053846;28;20216;-65
2023/09/10 11:08:40;;;;;;;4.43;2.10;;;;;29.80;96241.00;;;;5007048;28;20639;-64
2023/09/10 11:11:31;;;;;;;2.15;1.85;;;;;30.10;96239.00;;;;5053416;28;20172;-64
2023/09/10 11:14:01;;;;;;;1.40;1.30;;;;;29.90;96234.00;;;;5053205;28;20215;-65
2023/09/10 11:16:30;;;;;;;1.60;1.50;;;;;29.70;96234.00;;;;5054214;28;20211;-65
2023/09/10 11:18:58;;;;;;;1.67;1.58;;;;;29.70;96241.00;;;;5053659;28;20196;-65
2023/09/10 11:22:04;;;;;;;1.08;1.08;;;;;29.60;96262.00;;;;5054308;28;20203;-65
2023/09/10 11:24:36;;;;;;;1.85;1.60;;;;;29.20;96251.00;;;;5057563;28;20224;-65
2023/09/10 11:27:27;;;;;;;1.65;1.50;;;;;28.80;96234.00;;;;5057308;28;20212;-65
2023/09/10 11:30:15;;;;;;;1.92;1.83;;;;;29.20;96245.00;;;;5057263;28;20252;-65
2023/09/10 11:32:43;;;;;;;2.00;1.83;;;;;28.90;96248.00;;;;5057340;28;20263;-65
2023/09/10 11:35:27;;;;;;;1.38;1.35;;;;;29.00;96219.00;;;;5057420;28;20708;-65
2023/09/10 11:37:56;;;;;;;2.40;1.70;;;;;29.40;96238.00;;;;5039100;28;20200;-65
2023/09/10 11:40:27;;;;;;;1.98;1.88;;;;;29.50;96219.00;;;;5057035;28;20282;-65
2023/09/10 11:42:55;;;;;;;0.90;0.90;;;;;29.90;96211.00;;;;5057294;28;20195;-65
2023/09/10 11:45:30;;;;;;;2.92;2.10;;;;;30.40;96213.00;;;;5056769;28;20216;-65
2023/09/10 11:47:57;;;;;;;2.42;1.88;;;;;30.50;96216.00;;;;5057377;28;20191;-65
2023/09/10 11:50:26;;;;;;;2.58;1.95;;;;;30.80;96216.00;;;;5057309;28;20196;-65
2023/09/10 11:52:54;;;;;;;1.52;1.42;;;;;30.90;96210.00;;;;5056878;28;20203;-65
2023/09/10 11:55:21;;;;;;;2.83;2.05;;;;;31.10;96215.00;;;;5057111;28;20216;-65
2023/09/10 11:57:50;;;;;;;1.85;1.75;;;;;31.40;96218.00;;;;5039100;28;20539;-65
2023/09/10 12:00:18;;;;;;;2.00;1.90;;;;;31.60;96221.00;;;;5056573;28;20198;-64
2023/09/10 12:02:47;;;;;;;2.17;2.08;;;;;31.70;96213.00;;;;5056266;28;20291;-65
2023/09/10 12:05:15;;;;;;;2.90;1.98;;;;;31.70;96204.00;;;;5056238;28;20223;-65
2023/09/10 12:07:44;;;;;;;1.17;1.17;;;;;31.80;96208.00;;;;5056371;28;20203;-65
2023/09/10 12:10:12;;;;;;;3.42;2.25;;;;;31.90;96209.00;;;;5056784;28;20200;-65
2023/09/10 12:12:42;;;;;;;4.53;2.10;;;;;31.90;96211.00;;;;5056896;28;20250;-65
2023/09/10 12:15:12;;;;;;;1.67;1.58;;;;;32.10;96211.00;;;;5056726;28;20200;-66
2023/09/10 12:17:40;;;;;;;1.77;1.67;;;;;32.10;96214.00;;;;5056654;28;20184;-65
2023/09/10 12:20:11;;;;;;;1.63;1.52;;;;;31.90;96219.00;;;;5056513;28;20202;-65
2023/09/10 12:22:38;;;;;;;1.40;1.30;;;;;32.10;96214.00;;;;5057213;28;20188;-65
2023/09/10 12:25:07;;;;;;;1.27;1.27;;;;;32.30;96216.00;;;;5056210;28;20608;-65
2023/09/10 12:27:36;;;;;;;1.90;1.80;;;;;32.50;96204.00;;;;5038356;28;20291;-65
2023/09/10 12:30:03;;;;;;;1.63;1.52;;;;;32.60;96202.00;;;;5056166;28;20568;-65
2023/09/10 12:32:31;;;;;;;1.70;1.52;;;;;32.40;96207.00;;;;5055825;28;20196;-65
2023/09/10 12:34:59;;;;;;;1.65;1.55;;;;;32.50;96198.00;;;;5055207;28;20212;-65